createdAt,value
2023-02-07T00:04:23.158Z,39.48
2023-02-07T00:09:27.674Z,39.67
2023-02-07T00:14:33.686Z,39.98
2023-02-07T00:19:38.860Z,40.07
2023-02-07T00:24:43.521Z,39.54
2023-02-07T00:29:48.127Z,39.68
2023-02-07T00:34:52.743Z,39.31
2023-02-07T00:39:57.353Z,39.70
2023-02-07T00:45:01.960Z,38.50
2023-02-07T00:50:06.875Z,39.16
2023-02-07T00:55:11.474Z,38.56
2023-02-07T01:00:17.560Z,38.40
2023-02-07T01:05:24.106Z,38.69
2023-02-07T01:10:28.863Z,39.29
2023-02-07T01:15:37.722Z,38.21
2023-02-07T01:20:42.396Z,38.72
2023-02-07T01:25:47.434Z,37.98
2023-02-07T01:30:52.064Z,37.68
2023-02-07T01:35:56.691Z,37.22
2023-02-07T01:41:01.339Z,37.20
2023-02-07T01:46:06.867Z,37.06
2023-02-07T01:51:11.423Z,36.80
2023-02-07T01:56:31.001Z,36.13
2023-02-07T02:01:37.790Z,36.31
2023-02-07T02:06:43.593Z,36.55
2023-02-07T02:12:22.482Z,35.97
2023-02-07T02:17:34.543Z,35.47
2023-02-07T02:22:39.054Z,35.63
2023-02-07T02:28:23.314Z,35.39
2023-02-07T02:33:48.249Z,35.84
2023-02-07T02:39:07.918Z,35.50
2023-02-07T02:44:19.134Z,35.24
2023-02-07T02:49:24.702Z,34.74
2023-02-07T02:54:36.729Z,35.29
2023-02-07T03:00:24.237Z,35.23
2023-02-07T03:05:59.415Z,35.23
2023-02-07T03:11:15.074Z,35.24
2023-02-07T03:16:29.932Z,34.66
2023-02-07T03:22:03.303Z,35.13
2023-02-07T03:27:11.277Z,34.65
2023-02-07T03:32:16.762Z,34.86
2023-02-07T03:37:32.149Z,34.63
2023-02-07T03:42:45.204Z,34.22
2023-02-07T03:47:50.607Z,34.09
2023-02-07T03:52:55.772Z,34.38
2023-02-07T03:58:00.931Z,34.21
2023-02-07T04:03:06.958Z,34.03
2023-02-07T04:08:13.054Z,33.08
2023-02-07T04:13:18.156Z,33.04
2023-02-07T04:18:23.561Z,32.69
2023-02-07T04:23:28.685Z,33.84
2023-02-07T04:28:35.438Z,32.04
2023-02-07T04:33:41.506Z,33.60
2023-02-07T04:38:46.714Z,33.71
2023-02-07T04:43:53.476Z,33.65
2023-02-07T04:48:59.678Z,33.64
2023-02-07T04:54:05.343Z,32.40
2023-02-07T04:59:13.222Z,33.16
2023-02-07T05:04:18.668Z,32.63
2023-02-07T05:09:24.204Z,33.29
2023-02-07T05:14:29.045Z,32.69
2023-02-07T05:19:35.677Z,31.24
2023-02-07T05:24:41.345Z,33.23
2023-02-07T05:29:46.667Z,32.93
2023-02-07T05:34:51.831Z,33.15
2023-02-07T05:39:57.016Z,31.46
2023-02-07T05:45:03.241Z,30.86
2023-02-07T05:50:08.884Z,32.48
2023-02-07T05:55:15.987Z,31.11
2023-02-07T06:00:22.364Z,29.45
2023-02-07T06:05:32.865Z,30.84
2023-02-07T06:10:37.783Z,32.51
2023-02-07T06:15:43.184Z,30.32
2023-02-07T06:20:48.534Z,29.94
2023-02-07T06:25:55.119Z,31.29
2023-02-07T06:31:02.831Z,30.77
2023-02-07T06:36:11.645Z,32.32
2023-02-07T06:41:17.417Z,30.46
2023-02-07T06:46:25.651Z,31.55
2023-02-07T06:51:30.701Z,31.59
2023-02-07T06:56:38.971Z,32.16
2023-02-07T07:01:47.272Z,31.26
2023-02-07T07:06:55.876Z,31.00
2023-02-07T07:12:01.365Z,31.65
2023-02-07T07:17:10.690Z,31.57
2023-02-07T07:22:18.719Z,31.87
2023-02-07T07:27:27.031Z,31.87
2023-02-07T07:32:34.434Z,31.47
2023-02-07T07:37:42.290Z,31.74
2023-02-07T07:42:50.603Z,29.53
2023-02-07T07:48:08.920Z,31.64
2023-02-07T07:53:15.657Z,31.69
2023-02-07T07:58:22.540Z,31.82
2023-02-07T08:03:28.594Z,31.37
2023-02-07T08:08:34.057Z,31.35
2023-02-07T08:13:40.193Z,29.92
2023-02-07T08:18:46.779Z,31.26
2023-02-07T08:23:54.144Z,30.68
2023-02-07T08:29:01.436Z,31.38
2023-02-07T08:34:07.857Z,31.52
2023-02-07T08:39:15.041Z,31.53
2023-02-07T08:44:20.892Z,31.09
2023-02-07T08:49:26.135Z,31.41
2023-02-07T08:54:32.327Z,31.13
2023-02-07T08:59:37.562Z,31.26
2023-02-07T09:04:45.257Z,31.23
2023-02-07T09:09:50.594Z,31.29
2023-02-07T09:14:55.610Z,31.73
2023-02-07T09:20:01.005Z,31.06
2023-02-07T09:25:06.563Z,31.03
2023-02-07T09:30:12.224Z,31.36
2023-02-07T09:35:17.367Z,31.39
2023-02-07T09:40:24.139Z,31.47
2023-02-07T09:45:36.327Z,31.15
2023-02-07T09:50:50.667Z,31.50
2023-02-07T09:56:00.391Z,31.62
2023-02-07T10:01:19.392Z,31.50
2023-02-07T10:06:30.143Z,31.41
2023-02-07T10:11:35.731Z,31.51
2023-02-07T10:17:08.299Z,31.90
2023-02-07T10:22:35.268Z,31.67
2023-02-07T10:28:23.608Z,31.60
2023-02-07T10:33:38.825Z,31.77
2023-02-07T10:39:15.345Z,32.41
2023-02-07T10:44:23.345Z,32.14
2023-02-07T10:49:37.880Z,32.08
2023-02-07T10:54:53.700Z,32.27
2023-02-07T11:00:12.639Z,31.76
2023-02-07T11:05:20.037Z,32.79
2023-02-07T11:10:33.450Z,32.79
2023-02-07T11:15:58.877Z,32.43
2023-02-07T11:21:03.650Z,32.90
2023-02-07T11:26:08.369Z,33.11
2023-02-07T11:31:18.527Z,32.58
2023-02-07T11:36:31.711Z,33.08
2023-02-07T11:41:36.609Z,33.25
2023-02-07T11:46:44.034Z,33.10
2023-02-07T11:51:53.559Z,33.05
2023-02-07T11:57:13.352Z,33.40
2023-02-07T12:02:31.437Z,33.08
2023-02-07T12:07:46.564Z,33.05
2023-02-07T12:12:54.149Z,33.13
2023-02-07T12:18:17.091Z,32.82
2023-02-07T12:23:45.108Z,33.43
2023-02-07T12:29:28.460Z,32.64
2023-02-07T12:34:58.869Z,33.43
2023-02-07T12:40:15.181Z,33.42
2023-02-07T12:45:37.976Z,33.18
2023-02-07T12:50:49.723Z,33.80
2023-02-07T12:56:44.922Z,33.61
2023-02-07T13:02:32.916Z,34.03
2023-02-07T13:07:57.516Z,34.23
2023-02-07T13:13:25.474Z,34.00
2023-02-07T13:18:39.123Z,34.45
2023-02-07T13:23:51.304Z,34.78
2023-02-07T13:29:09.545Z,34.73
2023-02-07T13:34:22.760Z,35.14
2023-02-07T13:39:57.825Z,34.18
2023-02-07T13:45:13.147Z,34.79
2023-02-07T13:50:25.470Z,35.04
2023-02-07T13:55:42.586Z,34.84
2023-02-07T14:00:51.086Z,34.62
2023-02-07T14:06:17.520Z,34.26
2023-02-07T14:11:51.114Z,33.88
2023-02-07T14:17:02.661Z,34.34
2023-02-07T14:22:53.407Z,34.02
2023-02-07T14:28:04.819Z,35.03
2023-02-07T14:33:22.013Z,34.97
2023-02-07T14:38:37.285Z,34.83
2023-02-07T14:44:08.490Z,34.74
2023-02-07T14:49:21.436Z,35.00
2023-02-07T14:54:47.602Z,35.12
2023-02-07T15:00:13.111Z,34.20
2023-02-07T15:05:20.926Z,34.46
2023-02-07T15:10:39.907Z,34.75
2023-02-07T15:15:55.388Z,35.40
2023-02-07T15:21:03.018Z,35.85
2023-02-07T15:26:10.210Z,35.32
2023-02-07T15:31:20.349Z,36.26
2023-02-07T15:36:43.696Z,34.63
2023-02-07T15:41:51.063Z,35.24
2023-02-07T15:46:58.972Z,35.20
2023-02-07T15:52:03.858Z,36.37
2023-02-07T15:57:20.648Z,36.87
2023-02-07T16:02:33.904Z,37.51
2023-02-07T16:07:41.879Z,35.94
2023-02-07T16:12:51.232Z,35.62
2023-02-07T16:17:57.516Z,35.58
2023-02-07T16:23:06.380Z,35.95
2023-02-07T16:28:18.565Z,35.73
2023-02-07T16:33:26.091Z,36.50
2023-02-07T16:38:31.486Z,36.44
2023-02-07T16:43:43.494Z,36.02
2023-02-07T16:48:48.221Z,36.67
2023-02-07T16:53:53.724Z,37.03
2023-02-07T16:58:58.979Z,38.40
2023-02-07T17:04:04.144Z,36.63
2023-02-07T17:09:20.617Z,35.58
2023-02-07T17:14:26.108Z,36.27
2023-02-07T17:19:31.940Z,36.58
2023-02-07T17:24:37.102Z,37.07
2023-02-07T17:29:42.699Z,36.42
2023-02-07T17:34:47.899Z,37.44
2023-02-07T17:39:52.542Z,37.13
2023-02-07T17:44:57.157Z,36.60
2023-02-07T17:50:01.722Z,37.32
2023-02-07T17:55:06.778Z,37.70
2023-02-07T18:00:20.137Z,36.64
2023-02-07T18:05:26.000Z,36.57
2023-02-07T18:10:31.613Z,36.63
2023-02-07T18:15:36.188Z,36.00
2023-02-07T18:20:42.387Z,36.21
2023-02-07T18:25:52.057Z,37.22
2023-02-07T18:30:56.785Z,37.40
2023-02-07T18:36:01.551Z,38.23
2023-02-07T18:41:11.036Z,37.20
2023-02-07T18:46:18.913Z,38.06
2023-02-07T18:51:24.171Z,37.81
2023-02-07T18:56:29.012Z,37.33
2023-02-07T19:01:36.267Z,38.15
2023-02-07T19:06:40.333Z,38.13
2023-02-07T19:11:45.830Z,37.76
2023-02-07T19:16:54.059Z,36.93
2023-02-07T19:21:58.849Z,37.77
2023-02-07T19:27:02.825Z,37.89
2023-02-07T19:32:11.402Z,37.97
2023-02-07T19:37:15.943Z,38.17
2023-02-07T19:42:20.432Z,38.13
2023-02-07T19:47:25.022Z,38.03
2023-02-07T19:52:30.300Z,39.18
2023-02-07T19:57:36.355Z,38.68
2023-02-07T20:02:42.029Z,36.66
2023-02-07T20:07:46.565Z,37.65
2023-02-07T20:12:51.205Z,39.53
2023-02-07T20:17:57.860Z,37.20
2023-02-07T20:23:02.450Z,37.67
2023-02-07T20:28:09.459Z,37.72
2023-02-07T20:33:14.070Z,39.26
2023-02-07T20:38:18.645Z,39.46
2023-02-07T20:43:24.364Z,39.01
2023-02-07T20:48:30.621Z,39.14
2023-02-07T20:53:35.155Z,39.39
2023-02-07T20:58:40.414Z,38.81
2023-02-07T21:03:47.054Z,38.67
2023-02-07T21:09:02.157Z,38.73
2023-02-07T21:14:10.001Z,39.05
2023-02-07T21:19:16.413Z,39.26
2023-02-07T21:24:21.159Z,38.74
2023-02-07T21:29:25.364Z,38.31
2023-02-07T21:34:30.009Z,38.94
2023-02-07T21:39:34.583Z,39.02
2023-02-07T21:44:39.152Z,39.02
2023-02-07T21:49:44.750Z,39.26
2023-02-07T21:54:49.335Z,41.82
2023-02-07T21:59:54.854Z,40.02
2023-02-07T22:04:59.626Z,39.78
2023-02-07T22:10:05.847Z,39.00
2023-02-07T22:15:11.569Z,38.48
2023-02-07T22:20:16.928Z,40.74
2023-02-07T22:25:23.025Z,38.65
2023-02-07T22:30:27.773Z,40.21
2023-02-07T22:35:36.297Z,39.17
2023-02-07T22:40:42.708Z,39.42
2023-02-07T22:45:47.974Z,39.53
2023-02-07T22:50:52.605Z,39.66
2023-02-07T22:56:02.988Z,39.92
2023-02-07T23:01:08.298Z,39.80
2023-02-07T23:06:12.792Z,40.38
2023-02-07T23:11:19.221Z,40.72
2023-02-07T23:16:27.126Z,38.18
2023-02-07T23:21:31.858Z,39.17
2023-02-07T23:26:36.827Z,39.18
2023-02-07T23:31:41.493Z,40.49
2023-02-07T23:36:46.144Z,40.26
2023-02-07T23:41:50.766Z,38.89
2023-02-07T23:46:56.125Z,40.20
2023-02-07T23:52:00.781Z,40.59
2023-02-07T23:57:05.377Z,38.86
